sensor_id;sensor_type;location;lat;lon;timestamp;P1;durP1;ratioP1;P2;durP2;ratioP2
22359;SDS011;11347;52.030;4.690;2022-08-18T00:02:13;2.90;;;2.47;;
22359;SDS011;11347;52.030;4.690;2022-08-18T00:04:45;5.27;;;2.57;;
22359;SDS011;11347;52.030;4.690;2022-08-18T00:07:13;3.70;;;2.50;;
22359;SDS011;11347;52.030;4.690;2022-08-18T00:09:40;3.20;;;2.07;;
22359;SDS011;11347;52.030;4.690;2022-08-18T00:12:08;3.17;;;2.43;;
22359;SDS011;11347;52.030;4.690;2022-08-18T00:14:39;4.47;;;2.40;;
22359;SDS011;11347;52.030;4.690;2022-08-18T00:17:05;4.63;;;2.60;;
22359;SDS011;11347;52.030;4.690;2022-08-18T00:19:31;2.70;;;2.30;;
22359;SDS011;11347;52.030;4.690;2022-08-18T00:21:56;4.43;;;2.50;;
22359;SDS011;11347;52.030;4.690;2022-08-18T00:24:22;4.83;;;2.53;;
22359;SDS011;11347;52.030;4.690;2022-08-18T00:26:48;2.23;;;2.00;;
22359;SDS011;11347;52.030;4.690;2022-08-18T00:29:13;3.07;;;2.40;;
22359;SDS011;11347;52.030;4.690;2022-08-18T00:31:39;4.13;;;2.70;;
22359;SDS011;11347;52.030;4.690;2022-08-18T00:34:04;3.57;;;2.37;;
22359;SDS011;11347;52.030;4.690;2022-08-18T00:36:31;3.67;;;2.67;;
22359;SDS011;11347;52.030;4.690;2022-08-18T00:38:58;3.77;;;2.53;;
22359;SDS011;11347;52.030;4.690;2022-08-18T00:41:25;4.37;;;2.77;;
22359;SDS011;11347;52.030;4.690;2022-08-18T00:43:52;3.60;;;2.50;;
22359;SDS011;11347;52.030;4.690;2022-08-18T00:46:23;5.17;;;2.60;;
22359;SDS011;11347;52.030;4.690;2022-08-18T00:48:50;4.27;;;2.70;;
22359;SDS011;11347;52.030;4.690;2022-08-18T00:56:47;4.80;;;2.83;;
22359;SDS011;11347;52.030;4.690;2022-08-18T00:59:32;4.60;;;2.90;;
22359;SDS011;11347;52.030;4.690;2022-08-18T01:02:07;4.63;;;3.00;;
22359;SDS011;11347;52.030;4.690;2022-08-18T01:07:22;5.20;;;3.07;;
22359;SDS011;11347;52.030;4.690;2022-08-18T01:09:57;4.50;;;3.40;;
22359;SDS011;11347;52.030;4.690;2022-08-18T01:12:24;5.37;;;3.30;;
22359;SDS011;11347;52.030;4.690;2022-08-18T01:14:50;4.43;;;3.13;;
22359;SDS011;11347;52.030;4.690;2022-08-18T01:17:18;4.47;;;3.03;;
22359;SDS011;11347;52.030;4.690;2022-08-18T01:20:03;5.00;;;3.30;;
22359;SDS011;11347;52.030;4.690;2022-08-18T01:22:56;5.53;;;3.00;;
22359;SDS011;11347;52.030;4.690;2022-08-18T01:25:31;4.93;;;3.20;;
22359;SDS011;11347;52.030;4.690;2022-08-18T01:28:16;3.73;;;2.87;;
22359;SDS011;11347;52.030;4.690;2022-08-18T01:30:46;4.53;;;3.20;;
22359;SDS011;11347;52.030;4.690;2022-08-18T01:33:13;4.80;;;2.97;;
22359;SDS011;11347;52.030;4.690;2022-08-18T01:35:39;4.97;;;3.00;;
22359;SDS011;11347;52.030;4.690;2022-08-18T01:38:07;6.70;;;3.20;;
22359;SDS011;11347;52.030;4.690;2022-08-18T01:40:33;4.23;;;3.10;;
22359;SDS011;11347;52.030;4.690;2022-08-18T01:42:58;4.63;;;2.93;;
22359;SDS011;11347;52.030;4.690;2022-08-18T01:45:27;4.97;;;2.97;;
22359;SDS011;11347;52.030;4.690;2022-08-18T01:47:53;5.13;;;3.20;;
22359;SDS011;11347;52.030;4.690;2022-08-18T01:50:19;4.03;;;3.10;;
22359;SDS011;11347;52.030;4.690;2022-08-18T01:52:45;4.00;;;2.77;;
22359;SDS011;11347;52.030;4.690;2022-08-18T01:55:11;4.40;;;2.50;;
22359;SDS011;11347;52.030;4.690;2022-08-18T01:57:37;2.83;;;2.43;;
22359;SDS011;11347;52.030;4.690;2022-08-18T02:00:10;6.17;;;2.80;;
22359;SDS011;11347;52.030;4.690;2022-08-18T02:02:37;3.57;;;2.77;;
22359;SDS011;11347;52.030;4.690;2022-08-18T02:05:06;4.87;;;2.63;;
22359;SDS011;11347;52.030;4.690;2022-08-18T02:07:36;4.27;;;2.20;;
22359;SDS011;11347;52.030;4.690;2022-08-18T02:10:03;4.87;;;2.40;;
22359;SDS011;11347;52.030;4.690;2022-08-18T02:12:34;3.63;;;2.57;;
22359;SDS011;11347;52.030;4.690;2022-08-18T02:15:00;3.73;;;2.70;;
22359;SDS011;11347;52.030;4.690;2022-08-18T02:17:26;4.97;;;2.77;;
22359;SDS011;11347;52.030;4.690;2022-08-18T02:19:51;4.97;;;3.00;;
22359;SDS011;11347;52.030;4.690;2022-08-18T02:22:18;8.43;;;2.80;;
22359;SDS011;11347;52.030;4.690;2022-08-18T02:24:45;4.87;;;2.70;;
22359;SDS011;11347;52.030;4.690;2022-08-18T02:27:11;4.63;;;2.80;;
22359;SDS011;11347;52.030;4.690;2022-08-18T02:29:38;6.70;;;3.00;;
22359;SDS011;11347;52.030;4.690;2022-08-18T02:32:04;4.27;;;2.80;;
22359;SDS011;11347;52.030;4.690;2022-08-18T02:34:30;5.90;;;3.23;;
22359;SDS011;11347;52.030;4.690;2022-08-18T02:36:57;3.97;;;2.90;;
22359;SDS011;11347;52.030;4.690;2022-08-18T02:39:24;4.73;;;3.03;;
22359;SDS011;11347;52.030;4.690;2022-08-18T02:41:50;3.90;;;3.00;;
22359;SDS011;11347;52.030;4.690;2022-08-18T02:44:15;7.20;;;2.90;;
22359;SDS011;11347;52.030;4.690;2022-08-18T02:46:41;6.43;;;3.00;;
22359;SDS011;11347;52.030;4.690;2022-08-18T02:49:07;5.57;;;2.90;;
22359;SDS011;11347;52.030;4.690;2022-08-18T02:51:32;6.03;;;3.20;;
22359;SDS011;11347;52.030;4.690;2022-08-18T02:53:58;6.43;;;3.10;;
22359;SDS011;11347;52.030;4.690;2022-08-18T02:56:25;6.43;;;3.10;;
22359;SDS011;11347;52.030;4.690;2022-08-18T02:58:53;4.93;;;3.27;;
22359;SDS011;11347;52.030;4.690;2022-08-18T03:01:30;5.47;;;2.93;;
22359;SDS011;11347;52.030;4.690;2022-08-18T03:04:05;5.70;;;3.50;;
22359;SDS011;11347;52.030;4.690;2022-08-18T03:06:33;8.30;;;3.50;;
22359;SDS011;11347;52.030;4.690;2022-08-18T03:09:00;5.30;;;3.37;;
22359;SDS011;11347;52.030;4.690;2022-08-18T03:11:27;5.37;;;3.77;;
22359;SDS011;11347;52.030;4.690;2022-08-18T03:13:54;5.07;;;3.13;;
22359;SDS011;11347;52.030;4.690;2022-08-18T03:16:20;5.67;;;3.70;;
22359;SDS011;11347;52.030;4.690;2022-08-18T03:18:48;7.83;;;3.80;;
22359;SDS011;11347;52.030;4.690;2022-08-18T03:21:17;6.87;;;3.60;;
22359;SDS011;11347;52.030;4.690;2022-08-18T03:23:45;8.00;;;3.80;;
22359;SDS011;11347;52.030;4.690;2022-08-18T03:26:12;7.17;;;3.80;;
22359;SDS011;11347;52.030;4.690;2022-08-18T03:28:40;5.70;;;3.73;;
22359;SDS011;11347;52.030;4.690;2022-08-18T03:31:08;4.50;;;3.23;;
22359;SDS011;11347;52.030;4.690;2022-08-18T03:33:36;8.83;;;3.30;;
22359;SDS011;11347;52.030;4.690;2022-08-18T03:36:03;8.13;;;3.60;;
22359;SDS011;11347;52.030;4.690;2022-08-18T03:38:29;5.27;;;3.20;;
22359;SDS011;11347;52.030;4.690;2022-08-18T03:40:55;5.30;;;3.20;;
22359;SDS011;11347;52.030;4.690;2022-08-18T03:43:20;6.23;;;3.73;;
22359;SDS011;11347;52.030;4.690;2022-08-18T03:45:46;5.10;;;3.33;;
22359;SDS011;11347;52.030;4.690;2022-08-18T03:48:12;5.40;;;3.43;;
22359;SDS011;11347;52.030;4.690;2022-08-18T03:50:37;4.10;;;3.17;;
22359;SDS011;11347;52.030;4.690;2022-08-18T03:53:03;6.33;;;3.47;;
22359;SDS011;11347;52.030;4.690;2022-08-18T03:55:29;6.07;;;3.23;;
22359;SDS011;11347;52.030;4.690;2022-08-18T03:57:59;5.23;;;3.40;;
22359;SDS011;11347;52.030;4.690;2022-08-18T04:00:29;6.37;;;3.40;;
22359;SDS011;11347;52.030;4.690;2022-08-18T04:02:56;6.57;;;3.30;;
22359;SDS011;11347;52.030;4.690;2022-08-18T04:05:23;5.07;;;3.27;;
22359;SDS011;11347;52.030;4.690;2022-08-18T04:07:50;5.87;;;3.30;;
22359;SDS011;11347;52.030;4.690;2022-08-18T04:10:16;7.00;;;3.00;;
22359;SDS011;11347;52.030;4.690;2022-08-18T04:12:41;5.50;;;3.40;;
22359;SDS011;11347;52.030;4.690;2022-08-18T04:15:07;4.47;;;3.10;;
22359;SDS011;11347;52.030;4.690;2022-08-18T04:17:33;7.17;;;3.47;;
22359;SDS011;11347;52.030;4.690;2022-08-18T04:19:59;7.50;;;3.13;;
22359;SDS011;11347;52.030;4.690;2022-08-18T04:22:25;4.20;;;3.23;;
22359;SDS011;11347;52.030;4.690;2022-08-18T04:24:51;4.30;;;2.70;;
22359;SDS011;11347;52.030;4.690;2022-08-18T04:27:18;4.67;;;2.87;;
22359;SDS011;11347;52.030;4.690;2022-08-18T04:29:45;7.13;;;2.80;;
22359;SDS011;11347;52.030;4.690;2022-08-18T04:32:11;5.23;;;2.83;;
22359;SDS011;11347;52.030;4.690;2022-08-18T04:34:37;4.23;;;2.60;;
22359;SDS011;11347;52.030;4.690;2022-08-18T04:37:03;5.07;;;2.83;;
22359;SDS011;11347;52.030;4.690;2022-08-18T04:39:28;6.17;;;2.83;;
22359;SDS011;11347;52.030;4.690;2022-08-18T04:41:54;5.43;;;2.90;;
22359;SDS011;11347;52.030;4.690;2022-08-18T04:44:20;5.03;;;3.20;;
22359;SDS011;11347;52.030;4.690;2022-08-18T04:46:48;3.90;;;2.60;;
22359;SDS011;11347;52.030;4.690;2022-08-18T04:49:19;4.37;;;2.63;;
22359;SDS011;11347;52.030;4.690;2022-08-18T04:51:48;5.10;;;3.30;;
22359;SDS011;11347;52.030;4.690;2022-08-18T04:54:33;6.43;;;3.00;;
22359;SDS011;11347;52.030;4.690;2022-08-18T04:57:10;3.73;;;2.83;;
22359;SDS011;11347;52.030;4.690;2022-08-18T04:59:42;3.73;;;2.60;;
22359;SDS011;11347;52.030;4.690;2022-08-18T05:02:08;5.67;;;3.00;;
22359;SDS011;11347;52.030;4.690;2022-08-18T05:04:35;5.43;;;2.97;;
22359;SDS011;11347;52.030;4.690;2022-08-18T05:07:05;8.53;;;3.10;;
22359;SDS011;11347;52.030;4.690;2022-08-18T05:09:35;6.10;;;3.07;;
22359;SDS011;11347;52.030;4.690;2022-08-18T05:12:05;4.57;;;2.90;;
22359;SDS011;11347;52.030;4.690;2022-08-18T05:14:32;5.33;;;3.00;;
22359;SDS011;11347;52.030;4.690;2022-08-18T05:16:59;4.27;;;2.73;;
22359;SDS011;11347;52.030;4.690;2022-08-18T05:19:24;4.93;;;3.20;;
22359;SDS011;11347;52.030;4.690;2022-08-18T05:21:51;5.57;;;2.60;;
22359;SDS011;11347;52.030;4.690;2022-08-18T05:24:18;6.27;;;3.03;;
22359;SDS011;11347;52.030;4.690;2022-08-18T05:26:45;6.33;;;2.77;;
22359;SDS011;11347;52.030;4.690;2022-08-18T05:29:12;3.43;;;2.70;;
22359;SDS011;11347;52.030;4.690;2022-08-18T05:31:38;4.23;;;2.83;;
22359;SDS011;11347;52.030;4.690;2022-08-18T05:34:04;5.03;;;2.40;;
22359;SDS011;11347;52.030;4.690;2022-08-18T05:41:45;3.97;;;2.70;;
22359;SDS011;11347;52.030;4.690;2022-08-18T05:44:17;3.13;;;2.60;;
22359;SDS011;11347;52.030;4.690;2022-08-18T05:46:52;5.93;;;2.87;;
22359;SDS011;11347;52.030;4.690;2022-08-18T05:49:20;3.57;;;2.60;;
22359;SDS011;11347;52.030;4.690;2022-08-18T05:51:50;3.50;;;2.50;;
22359;SDS011;11347;52.030;4.690;2022-08-18T05:54:18;4.40;;;2.60;;
22359;SDS011;11347;52.030;4.690;2022-08-18T05:57:05;5.20;;;2.73;;
22359;SDS011;11347;52.030;4.690;2022-08-18T05:59:36;5.47;;;2.97;;
22359;SDS011;11347;52.030;4.690;2022-08-18T06:02:18;5.47;;;2.70;;
22359;SDS011;11347;52.030;4.690;2022-08-18T06:07:33;2.63;;;2.00;;
22359;SDS011;11347;52.030;4.690;2022-08-18T06:10:05;2.73;;;2.17;;
22359;SDS011;11347;52.030;4.690;2022-08-18T06:12:52;3.90;;;2.10;;
22359;SDS011;11347;52.030;4.690;2022-08-18T06:26:23;4.40;;;2.43;;
22359;SDS011;11347;52.030;4.690;2022-08-18T06:29:21;3.20;;;2.13;;
22359;SDS011;11347;52.030;4.690;2022-08-18T06:32:27;4.33;;;2.40;;
22359;SDS011;11347;52.030;4.690;2022-08-18T06:41:02;3.30;;;2.30;;
22359;SDS011;11347;52.030;4.690;2022-08-18T06:43:43;4.30;;;2.30;;
22359;SDS011;11347;52.030;4.690;2022-08-18T06:46:31;4.30;;;2.10;;
22359;SDS011;11347;52.030;4.690;2022-08-18T06:49:05;4.77;;;2.43;;
22359;SDS011;11347;52.030;4.690;2022-08-18T06:51:36;3.77;;;2.23;;
22359;SDS011;11347;52.030;4.690;2022-08-18T06:56:47;3.10;;;2.10;;
22359;SDS011;11347;52.030;4.690;2022-08-18T07:01:50;4.27;;;2.40;;
22359;SDS011;11347;52.030;4.690;2022-08-18T07:07:35;4.10;;;1.93;;
22359;SDS011;11347;52.030;4.690;2022-08-18T07:10:07;2.90;;;2.13;;
22359;SDS011;11347;52.030;4.690;2022-08-18T07:13:04;2.90;;;2.20;;
22359;SDS011;11347;52.030;4.690;2022-08-18T07:15:31;2.93;;;1.90;;
22359;SDS011;11347;52.030;4.690;2022-08-18T07:18:04;3.93;;;2.30;;
22359;SDS011;11347;52.030;4.690;2022-08-18T07:20:40;3.17;;;2.00;;
22359;SDS011;11347;52.030;4.690;2022-08-18T07:23:22;3.23;;;2.20;;
22359;SDS011;11347;52.030;4.690;2022-08-18T07:25:50;2.57;;;2.03;;
22359;SDS011;11347;52.030;4.690;2022-08-18T07:28:47;3.60;;;1.93;;
22359;SDS011;11347;52.030;4.690;2022-08-18T07:34:16;3.87;;;2.17;;
22359;SDS011;11347;52.030;4.690;2022-08-18T07:45:39;3.77;;;2.10;;
22359;SDS011;11347;52.030;4.690;2022-08-18T07:48:24;4.93;;;2.20;;
22359;SDS011;11347;52.030;4.690;2022-08-18T08:02:34;4.53;;;1.60;;
22359;SDS011;11347;52.030;4.690;2022-08-18T08:10:39;4.03;;;1.70;;
22359;SDS011;11347;52.030;4.690;2022-08-18T08:16:02;4.33;;;1.67;;
22359;SDS011;11347;52.030;4.690;2022-08-18T08:18:45;2.73;;;1.53;;
22359;SDS011;11347;52.030;4.690;2022-08-18T08:21:32;2.80;;;1.80;;
22359;SDS011;11347;52.030;4.690;2022-08-18T08:27:01;5.23;;;1.70;;
22359;SDS011;11347;52.030;4.690;2022-08-18T08:32:24;6.17;;;1.87;;
22359;SDS011;11347;52.030;4.690;2022-08-18T08:35:04;4.23;;;1.97;;
22359;SDS011;11347;52.030;4.690;2022-08-18T08:40:16;3.07;;;1.60;;
22359;SDS011;11347;52.030;4.690;2022-08-18T08:42:48;5.33;;;1.80;;
22359;SDS011;11347;52.030;4.690;2022-08-18T08:45:21;3.13;;;1.57;;
22359;SDS011;11347;52.030;4.690;2022-08-18T08:48:05;2.47;;;1.70;;
22359;SDS011;11347;52.030;4.690;2022-08-18T08:50:40;2.40;;;1.67;;
22359;SDS011;11347;52.030;4.690;2022-08-18T08:55:50;3.03;;;1.50;;
22359;SDS011;11347;52.030;4.690;2022-08-18T08:58:38;2.63;;;1.50;;
22359;SDS011;11347;52.030;4.690;2022-08-18T09:01:11;2.23;;;1.30;;
22359;SDS011;11347;52.030;4.690;2022-08-18T09:04:34;2.90;;;1.60;;
22359;SDS011;11347;52.030;4.690;2022-08-18T09:07:05;2.07;;;1.40;;
22359;SDS011;11347;52.030;4.690;2022-08-18T09:15:20;2.00;;;1.40;;
22359;SDS011;11347;52.030;4.690;2022-08-18T09:23:39;2.00;;;1.27;;
22359;SDS011;11347;52.030;4.690;2022-08-18T09:26:37;1.73;;;1.23;;
22359;SDS011;11347;52.030;4.690;2022-08-18T09:29:25;3.00;;;1.40;;
22359;SDS011;11347;52.030;4.690;2022-08-18T09:37:12;1.80;;;1.27;;
22359;SDS011;11347;52.030;4.690;2022-08-18T09:39:55;2.70;;;1.30;;
22359;SDS011;11347;52.030;4.690;2022-08-18T09:43:11;2.20;;;1.40;;
22359;SDS011;11347;52.030;4.690;2022-08-18T09:45:52;2.07;;;1.20;;
22359;SDS011;11347;52.030;4.690;2022-08-18T09:48:24;1.87;;;1.07;;
22359;SDS011;11347;52.030;4.690;2022-08-18T09:53:33;2.50;;;1.50;;
22359;SDS011;11347;52.030;4.690;2022-08-18T09:56:17;3.00;;;1.90;;
22359;SDS011;11347;52.030;4.690;2022-08-18T10:01:58;2.97;;;1.90;;
22359;SDS011;11347;52.030;4.690;2022-08-18T10:04:41;4.33;;;1.73;;
22359;SDS011;11347;52.030;4.690;2022-08-18T10:07:37;3.33;;;1.60;;
22359;SDS011;11347;52.030;4.690;2022-08-18T10:10:12;2.90;;;1.80;;
22359;SDS011;11347;52.030;4.690;2022-08-18T10:20:51;2.33;;;1.30;;
22359;SDS011;11347;52.030;4.690;2022-08-18T10:26:25;1.90;;;1.30;;
22359;SDS011;11347;52.030;4.690;2022-08-18T10:28:55;2.13;;;1.47;;
22359;SDS011;11347;52.030;4.690;2022-08-18T10:31:29;2.90;;;1.40;;
22359;SDS011;11347;52.030;4.690;2022-08-18T10:34:35;2.13;;;1.50;;
22359;SDS011;11347;52.030;4.690;2022-08-18T10:37:01;2.47;;;1.37;;
22359;SDS011;11347;52.030;4.690;2022-08-18T10:42:19;1.70;;;1.50;;
22359;SDS011;11347;52.030;4.690;2022-08-18T10:45:04;1.77;;;1.23;;
22359;SDS011;11347;52.030;4.690;2022-08-18T10:47:43;4.13;;;1.20;;
22359;SDS011;11347;52.030;4.690;2022-08-18T10:50:45;2.50;;;1.20;;
22359;SDS011;11347;52.030;4.690;2022-08-18T10:53:46;1.50;;;1.13;;
22359;SDS011;11347;52.030;4.690;2022-08-18T11:04:43;1.90;;;1.07;;
22359;SDS011;11347;52.030;4.690;2022-08-18T11:07:20;2.47;;;1.10;;
22359;SDS011;11347;52.030;4.690;2022-08-18T11:09:50;2.27;;;1.40;;
22359;SDS011;11347;52.030;4.690;2022-08-18T11:13:00;2.57;;;1.50;;
22359;SDS011;11347;52.030;4.690;2022-08-18T11:18:05;1.80;;;1.33;;
22359;SDS011;11347;52.030;4.690;2022-08-18T11:20:53;2.30;;;1.40;;
22359;SDS011;11347;52.030;4.690;2022-08-18T11:23:38;1.67;;;1.37;;
22359;SDS011;11347;52.030;4.690;2022-08-18T11:26:14;2.47;;;1.30;;
22359;SDS011;11347;52.030;4.690;2022-08-18T11:28:40;2.17;;;1.50;;
22359;SDS011;11347;52.030;4.690;2022-08-18T11:31:06;1.90;;;1.20;;
22359;SDS011;11347;52.030;4.690;2022-08-18T11:33:33;1.73;;;1.10;;
22359;SDS011;11347;52.030;4.690;2022-08-18T11:35:58;2.50;;;1.60;;
22359;SDS011;11347;52.030;4.690;2022-08-18T11:38:25;2.37;;;1.40;;
22359;SDS011;11347;52.030;4.690;2022-08-18T11:41:13;2.37;;;1.40;;
22359;SDS011;11347;52.030;4.690;2022-08-18T11:43:42;2.23;;;1.40;;
22359;SDS011;11347;52.030;4.690;2022-08-18T11:48:48;1.77;;;1.10;;
22359;SDS011;11347;52.030;4.690;2022-08-18T11:54:18;2.10;;;1.20;;
22359;SDS011;11347;52.030;4.690;2022-08-18T11:56:36;3.00;;;1.30;;
22359;SDS011;11347;52.030;4.690;2022-08-18T12:01:49;2.13;;;1.63;;
22359;SDS011;11347;52.030;4.690;2022-08-18T12:07:04;2.83;;;1.60;;
22359;SDS011;11347;52.030;4.690;2022-08-18T12:14:50;2.07;;;1.40;;
22359;SDS011;11347;52.030;4.690;2022-08-18T12:17:16;1.60;;;1.40;;
22359;SDS011;11347;52.030;4.690;2022-08-18T12:19:42;6.47;;;2.00;;
22359;SDS011;11347;52.030;4.690;2022-08-18T12:22:13;2.97;;;1.43;;
22359;SDS011;11347;52.030;4.690;2022-08-18T12:24:41;1.40;;;1.20;;
22359;SDS011;11347;52.030;4.690;2022-08-18T12:27:07;1.60;;;1.40;;
22359;SDS011;11347;52.030;4.690;2022-08-18T12:29:33;2.00;;;1.40;;
22359;SDS011;11347;52.030;4.690;2022-08-18T12:31:59;3.27;;;2.00;;
22359;SDS011;11347;52.030;4.690;2022-08-18T12:34:24;3.87;;;2.30;;
22359;SDS011;11347;52.030;4.690;2022-08-18T12:36:51;4.77;;;2.00;;
22359;SDS011;11347;52.030;4.690;2022-08-18T12:39:21;2.63;;;1.60;;
22359;SDS011;11347;52.030;4.690;2022-08-18T12:41:47;2.90;;;1.80;;
22359;SDS011;11347;52.030;4.690;2022-08-18T12:44:12;4.70;;;2.10;;
22359;SDS011;11347;52.030;4.690;2022-08-18T12:46:39;4.00;;;2.07;;
22359;SDS011;11347;52.030;4.690;2022-08-18T12:49:05;3.40;;;2.00;;
22359;SDS011;11347;52.030;4.690;2022-08-18T12:51:36;2.07;;;1.80;;
22359;SDS011;11347;52.030;4.690;2022-08-18T12:54:02;2.47;;;1.90;;
22359;SDS011;11347;52.030;4.690;2022-08-18T12:56:29;3.00;;;2.10;;
22359;SDS011;11347;52.030;4.690;2022-08-18T12:58:57;4.10;;;2.00;;
22359;SDS011;11347;52.030;4.690;2022-08-18T13:01:24;7.53;;;2.30;;
22359;SDS011;11347;52.030;4.690;2022-08-18T13:03:51;3.40;;;1.77;;
22359;SDS011;11347;52.030;4.690;2022-08-18T13:06:19;3.53;;;1.67;;
22359;SDS011;11347;52.030;4.690;2022-08-18T13:08:46;3.23;;;1.77;;
22359;SDS011;11347;52.030;4.690;2022-08-18T13:11:12;3.87;;;1.83;;
22359;SDS011;11347;52.030;4.690;2022-08-18T13:13:38;4.17;;;1.80;;
22359;SDS011;11347;52.030;4.690;2022-08-18T13:16:07;2.23;;;1.60;;
22359;SDS011;11347;52.030;4.690;2022-08-18T13:18:33;3.67;;;1.77;;
22359;SDS011;11347;52.030;4.690;2022-08-18T13:21:00;2.90;;;2.17;;
22359;SDS011;11347;52.030;4.690;2022-08-18T13:23:27;2.53;;;1.70;;
22359;SDS011;11347;52.030;4.690;2022-08-18T13:25:54;2.93;;;1.63;;
22359;SDS011;11347;52.030;4.690;2022-08-18T13:28:22;2.27;;;1.30;;
22359;SDS011;11347;52.030;4.690;2022-08-18T13:30:48;5.10;;;1.53;;
22359;SDS011;11347;52.030;4.690;2022-08-18T13:33:15;3.23;;;1.50;;
22359;SDS011;11347;52.030;4.690;2022-08-18T13:35:41;2.30;;;1.70;;
22359;SDS011;11347;52.030;4.690;2022-08-18T13:38:07;3.50;;;1.70;;
22359;SDS011;11347;52.030;4.690;2022-08-18T13:40:32;4.50;;;1.47;;
22359;SDS011;11347;52.030;4.690;2022-08-18T13:42:58;2.97;;;1.40;;
22359;SDS011;11347;52.030;4.690;2022-08-18T13:45:23;3.53;;;1.50;;
22359;SDS011;11347;52.030;4.690;2022-08-18T13:47:50;2.53;;;1.60;;
22359;SDS011;11347;52.030;4.690;2022-08-18T13:50:15;4.27;;;1.60;;
22359;SDS011;11347;52.030;4.690;2022-08-18T13:52:41;2.30;;;1.20;;
22359;SDS011;11347;52.030;4.690;2022-08-18T13:55:10;2.57;;;1.37;;
22359;SDS011;11347;52.030;4.690;2022-08-18T13:57:39;1.73;;;1.20;;
22359;SDS011;11347;52.030;4.690;2022-08-18T14:00:07;2.00;;;1.40;;
22359;SDS011;11347;52.030;4.690;2022-08-18T14:02:38;2.53;;;1.40;;
22359;SDS011;11347;52.030;4.690;2022-08-18T14:05:04;2.33;;;1.50;;
22359;SDS011;11347;52.030;4.690;2022-08-18T14:07:31;2.97;;;1.50;;
22359;SDS011;11347;52.030;4.690;2022-08-18T14:09:57;2.40;;;1.20;;
22359;SDS011;11347;52.030;4.690;2022-08-18T14:12:23;1.83;;;1.20;;
22359;SDS011;11347;52.030;4.690;2022-08-18T14:14:52;2.13;;;1.30;;
22359;SDS011;11347;52.030;4.690;2022-08-18T14:17:19;2.33;;;1.30;;
22359;SDS011;11347;52.030;4.690;2022-08-18T14:19:46;3.40;;;1.50;;
22359;SDS011;11347;52.030;4.690;2022-08-18T14:22:30;2.10;;;1.20;;
22359;SDS011;11347;52.030;4.690;2022-08-18T14:25:14;3.13;;;1.30;;
22359;SDS011;11347;52.030;4.690;2022-08-18T14:28:01;3.47;;;1.60;;
22359;SDS011;11347;52.030;4.690;2022-08-18T14:30:26;1.60;;;1.30;;
22359;SDS011;11347;52.030;4.690;2022-08-18T14:32:52;1.73;;;1.20;;
22359;SDS011;11347;52.030;4.690;2022-08-18T14:35:17;2.07;;;1.17;;
22359;SDS011;11347;52.030;4.690;2022-08-18T14:37:46;1.20;;;1.10;;
22359;SDS011;11347;52.030;4.690;2022-08-18T14:40:12;2.00;;;1.20;;
22359;SDS011;11347;52.030;4.690;2022-08-18T14:42:37;1.77;;;1.40;;
22359;SDS011;11347;52.030;4.690;2022-08-18T14:45:05;2.87;;;1.50;;
22359;SDS011;11347;52.030;4.690;2022-08-18T14:47:31;2.83;;;1.40;;
22359;SDS011;11347;52.030;4.690;2022-08-18T14:49:57;1.83;;;1.23;;
22359;SDS011;11347;52.030;4.690;2022-08-18T14:52:24;3.97;;;1.40;;
22359;SDS011;11347;52.030;4.690;2022-08-18T14:54:51;1.87;;;1.37;;
22359;SDS011;11347;52.030;4.690;2022-08-18T14:57:17;1.50;;;1.20;;
22359;SDS011;11347;52.030;4.690;2022-08-18T14:59:43;3.20;;;1.33;;
22359;SDS011;11347;52.030;4.690;2022-08-18T15:02:10;2.63;;;1.30;;
22359;SDS011;11347;52.030;4.690;2022-08-18T15:04:37;3.90;;;1.40;;
22359;SDS011;11347;52.030;4.690;2022-08-18T15:07:03;2.07;;;1.37;;
22359;SDS011;11347;52.030;4.690;2022-08-18T15:09:29;2.80;;;1.40;;
22359;SDS011;11347;52.030;4.690;2022-08-18T15:11:55;2.20;;;1.43;;
22359;SDS011;11347;52.030;4.690;2022-08-18T15:14:26;2.93;;;1.30;;
22359;SDS011;11347;52.030;4.690;2022-08-18T15:16:54;2.93;;;1.40;;
22359;SDS011;11347;52.030;4.690;2022-08-18T15:19:20;3.47;;;1.40;;
22359;SDS011;11347;52.030;4.690;2022-08-18T15:21:46;2.70;;;1.50;;
22359;SDS011;11347;52.030;4.690;2022-08-18T15:24:31;2.50;;;1.57;;
22359;SDS011;11347;52.030;4.690;2022-08-18T15:27:15;3.07;;;1.60;;
22359;SDS011;11347;52.030;4.690;2022-08-18T15:29:41;3.67;;;1.70;;
22359;SDS011;11347;52.030;4.690;2022-08-18T15:32:06;3.67;;;1.50;;
22359;SDS011;11347;52.030;4.690;2022-08-18T15:34:32;4.13;;;1.77;;
22359;SDS011;11347;52.030;4.690;2022-08-18T15:36:58;3.10;;;1.50;;
22359;SDS011;11347;52.030;4.690;2022-08-18T15:39:24;3.07;;;1.50;;
22359;SDS011;11347;52.030;4.690;2022-08-18T15:41:50;3.43;;;1.70;;
22359;SDS011;11347;52.030;4.690;2022-08-18T15:44:17;2.97;;;1.50;;
22359;SDS011;11347;52.030;4.690;2022-08-18T15:46:44;3.90;;;2.00;;
22359;SDS011;11347;52.030;4.690;2022-08-18T15:49:12;6.50;;;1.80;;
22359;SDS011;11347;52.030;4.690;2022-08-18T15:51:38;5.03;;;1.80;;
22359;SDS011;11347;52.030;4.690;2022-08-18T15:54:05;3.20;;;1.60;;
22359;SDS011;11347;52.030;4.690;2022-08-18T15:56:31;3.50;;;1.40;;
22359;SDS011;11347;52.030;4.690;2022-08-18T15:58:57;3.30;;;1.53;;
22359;SDS011;11347;52.030;4.690;2022-08-18T16:01:28;4.47;;;1.93;;
22359;SDS011;11347;52.030;4.690;2022-08-18T16:03:54;3.57;;;1.90;;
22359;SDS011;11347;52.030;4.690;2022-08-18T16:06:20;3.00;;;1.50;;
22359;SDS011;11347;52.030;4.690;2022-08-18T16:08:49;3.33;;;1.70;;
22359;SDS011;11347;52.030;4.690;2022-08-18T16:11:15;4.20;;;1.50;;
22359;SDS011;11347;52.030;4.690;2022-08-18T16:13:43;5.43;;;1.50;;
22359;SDS011;11347;52.030;4.690;2022-08-18T16:16:10;5.27;;;1.80;;
22359;SDS011;11347;52.030;4.690;2022-08-18T16:18:38;4.13;;;1.90;;
22359;SDS011;11347;52.030;4.690;2022-08-18T16:21:04;4.00;;;1.80;;
22359;SDS011;11347;52.030;4.690;2022-08-18T16:23:35;5.47;;;2.10;;
22359;SDS011;11347;52.030;4.690;2022-08-18T16:26:02;3.83;;;1.80;;
22359;SDS011;11347;52.030;4.690;2022-08-18T16:28:27;4.30;;;1.83;;
22359;SDS011;11347;52.030;4.690;2022-08-18T16:30:53;6.23;;;2.00;;
22359;SDS011;11347;52.030;4.690;2022-08-18T16:33:19;3.90;;;1.90;;
22359;SDS011;11347;52.030;4.690;2022-08-18T16:35:44;3.80;;;1.73;;
22359;SDS011;11347;52.030;4.690;2022-08-18T16:38:12;2.97;;;1.60;;
22359;SDS011;11347;52.030;4.690;2022-08-18T16:40:38;3.87;;;1.60;;
22359;SDS011;11347;52.030;4.690;2022-08-18T16:43:05;3.87;;;1.60;;
22359;SDS011;11347;52.030;4.690;2022-08-18T16:45:31;7.53;;;1.80;;
22359;SDS011;11347;52.030;4.690;2022-08-18T16:47:59;3.53;;;1.70;;
22359;SDS011;11347;52.030;4.690;2022-08-18T16:50:26;3.30;;;1.63;;
22359;SDS011;11347;52.030;4.690;2022-08-18T16:52:52;4.90;;;1.80;;
22359;SDS011;11347;52.030;4.690;2022-08-18T16:55:18;3.80;;;1.70;;
22359;SDS011;11347;52.030;4.690;2022-08-18T16:57:45;4.27;;;2.00;;
22359;SDS011;11347;52.030;4.690;2022-08-18T17:00:30;3.10;;;1.50;;
22359;SDS011;11347;52.030;4.690;2022-08-18T17:03:16;5.60;;;1.63;;
22359;SDS011;11347;52.030;4.690;2022-08-18T17:06:05;3.77;;;1.83;;
22359;SDS011;11347;52.030;4.690;2022-08-18T17:08:33;2.97;;;1.70;;
22359;SDS011;11347;52.030;4.690;2022-08-18T17:11:00;3.87;;;1.67;;
22359;SDS011;11347;52.030;4.690;2022-08-18T17:13:32;3.20;;;1.90;;
22359;SDS011;11347;52.030;4.690;2022-08-18T17:15:58;4.17;;;1.90;;
22359;SDS011;11347;52.030;4.690;2022-08-18T17:18:23;4.30;;;1.67;;
22359;SDS011;11347;52.030;4.690;2022-08-18T17:20:50;4.93;;;1.80;;
22359;SDS011;11347;52.030;4.690;2022-08-18T17:23:16;3.50;;;1.70;;
22359;SDS011;11347;52.030;4.690;2022-08-18T17:25:42;3.23;;;1.73;;
22359;SDS011;11347;52.030;4.690;2022-08-18T17:28:09;4.23;;;2.07;;
22359;SDS011;11347;52.030;4.690;2022-08-18T17:30:45;4.90;;;1.60;;
22359;SDS011;11347;52.030;4.690;2022-08-18T17:33:17;3.40;;;1.80;;
22359;SDS011;11347;52.030;4.690;2022-08-18T17:35:48;2.80;;;1.43;;
22359;SDS011;11347;52.030;4.690;2022-08-18T17:38:30;2.90;;;1.40;;